Time;durP1;ratioP1;P1;durP2;ratioP2;P2;SDS_P1;SDS_P2;PMS_P1;PMS_P2;Temp;Humidity;BMP_temperature;BMP_pressure;BME280_temperature;BME280_humidity;BME280_pressure;Samples;Min_cycle;Max_cycle;Signal;HPM_P1;HPM_P2
2023/10/26 00:00:49;;;;;;;;;;;;;;;15.26;100.00;94495.03;5138363;27;993;-61
2023/10/26 00:03:15;;;;;;;;;;;;;;;15.23;100.00;94491.72;5138053;27;1052;-61
2023/10/26 00:05:41;;;;;;;;;;;;;;;15.03;100.00;94477.41;5138444;27;996;-60
2023/10/26 00:08:07;;;;;;;;;;;;;;;14.93;100.00;94485.03;5147680;27;1083;-60
2023/10/26 00:10:33;;;;;;;;;;;;;;;15.03;100.00;94475.53;5158779;27;1300;-60
2023/10/26 00:12:59;;;;;;;;;;;;;;;15.20;100.00;94484.03;5158740;27;921;-61
2023/10/26 00:15:25;;;;;;;;;;;;;;;15.04;100.00;94476.34;5158778;27;1047;-61
2023/10/26 00:17:51;;;;;;;;;;;;;;;14.94;100.00;94494.78;5158717;27;1064;-61
2023/10/26 00:20:17;;;;;;;;;;;;;;;14.76;100.00;94495.31;5158440;27;1909;-61
2023/10/26 00:22:43;;;;;;;;;;;;;;;14.81;100.00;94485.63;5158783;27;1040;-61
2023/10/26 00:25:09;;;;;;;;;;;;;;;14.93;100.00;94480.50;5158689;27;1007;-61
2023/10/26 00:27:40;;;;;;;;;;;;;;;14.92;100.00;94478.81;5158534;27;1015;-61
2023/10/26 00:30:08;;;;;;;;;;;;;;;14.93;100.00;94471.56;5140217;27;981;-61
2023/10/26 00:32:34;;;;;;;;;;;;;;;14.86;100.00;94479.63;5155238;27;1288;-61
2023/10/26 00:34:59;;;;;;;;;;;;;;;14.82;100.00;94464.94;5137524;27;1120;-61
2023/10/26 00:37:25;;;;;;;;;;;;;;;14.73;100.00;94466.97;5137656;27;1047;-61
2023/10/26 00:39:51;;;;;;;;;;;;;;;14.69;100.00;94454.97;5137570;27;1996;-61
2023/10/26 00:42:17;;;;;;;;;;;;;;;14.64;100.00;94458.28;5137511;27;996;-61
2023/10/26 00:44:46;;;;;;;;;;;;;;;14.56;100.00;94453.03;5137414;27;1110;-61
2023/10/26 00:47:14;;;;;;;;;;;;;;;14.58;100.00;94437.56;5137275;27;977;-61
2023/10/26 00:49:43;;;;;;;;;;;;;;;14.54;100.00;94444.34;5137538;27;1036;-61
2023/10/26 00:52:09;;;;;;;;;;;;;;;14.60;100.00;94446.25;5137417;27;991;-60
2023/10/26 00:54:37;;;;;;;;;;;;;;;14.65;100.00;94440.28;5137377;27;1048;-61
2023/10/26 00:57:04;;;;;;;;;;;;;;;14.72;100.00;94451.03;5137273;27;1200;-61
2023/10/26 00:59:30;;;;;;;;;;;;;;;14.69;100.00;94446.91;5137045;27;1986;-61
2023/10/26 01:01:57;;;;;;;;;;;;;;;14.68;100.00;94449.78;5137151;27;1094;-61
2023/10/26 01:04:23;;;;;;;;;;;;;;;14.73;100.00;94444.63;5137180;27;957;-61
2023/10/26 01:06:49;;;;;;;;;;;;;;;14.74;100.00;94443.59;5137148;27;1036;-61
2023/10/26 01:09:15;;;;;;;;;;;;;;;14.78;100.00;94439.47;5135772;27;1099;-61
2023/10/26 01:11:41;;;;;;;;;;;;;;;14.82;100.00;94430.78;5136966;27;1038;-61
2023/10/26 01:14:08;;;;;;;;;;;;;;;14.77;100.00;94427.88;5136821;27;1095;-61
2023/10/26 01:16:34;;;;;;;;;;;;;;;14.64;100.00;94423.31;5136706;27;1047;-61
2023/10/26 01:19:01;;;;;;;;;;;;;;;14.56;100.00;94420.75;5136907;27;1992;-61
2023/10/26 01:21:27;;;;;;;;;;;;;;;14.57;100.00;94409.00;5136763;27;996;-61
2023/10/26 01:23:53;;;;;;;;;;;;;;;14.44;100.00;94399.00;5136734;27;1048;-61
2023/10/26 01:26:19;;;;;;;;;;;;;;;14.33;100.00;94391.53;5136483;27;1032;-61
2023/10/26 01:28:45;;;;;;;;;;;;;;;14.44;100.00;94406.25;5136475;27;1285;-61
2023/10/26 01:31:15;;;;;;;;;;;;;;;14.58;100.00;94402.59;5136373;27;1187;-61
2023/10/26 01:33:41;;;;;;;;;;;;;;;14.55;100.00;94396.75;5149207;27;1145;-61
2023/10/26 01:36:07;;;;;;;;;;;;;;;14.58;100.00;94391.81;5157300;27;992;-61
2023/10/26 01:38:33;;;;;;;;;;;;;;;14.64;100.00;94392.88;5156933;27;1988;-61
2023/10/26 01:40:59;;;;;;;;;;;;;;;14.88;100.00;94396.84;5157170;27;967;-61
2023/10/26 01:43:25;;;;;;;;;;;;;;;15.22;100.00;94406.56;5156982;27;1004;-61
2023/10/26 01:45:51;;;;;;;;;;;;;;;15.45;100.00;94408.00;5157211;27;965;-61
2023/10/26 01:48:17;;;;;;;;;;;;;;;15.72;100.00;94405.25;5156770;27;1043;-61
2023/10/26 01:50:43;;;;;;;;;;;;;;;15.79;100.00;94400.72;5157072;27;1007;-61
2023/10/26 01:53:09;;;;;;;;;;;;;;;15.83;100.00;94401.94;5156766;27;1024;-61
2023/10/26 01:55:35;;;;;;;;;;;;;;;15.96;100.00;94393.00;5156729;27;1063;-61
2023/10/26 01:58:01;;;;;;;;;;;;;;;16.10;100.00;94386.50;5156691;27;956;-61
2023/10/26 02:00:27;;;;;;;;;;;;;;;16.14;100.00;94381.50;5156444;27;2044;-62
2023/10/26 02:02:55;;;;;;;;;;;;;;;16.20;100.00;94370.69;5156839;27;1023;-61
2023/10/26 02:05:21;;;;;;;;;;;;;;;16.28;100.00;94371.50;5156705;27;1051;-61
2023/10/26 02:07:47;;;;;;;;;;;;;;;16.33;100.00;94355.47;5156320;27;1095;-61
2023/10/26 02:10:14;;;;;;;;;;;;;;;16.36;100.00;94361.25;5156508;27;991;-60
2023/10/26 02:12:40;;;;;;;;;;;;;;;16.40;100.00;94342.78;5156443;27;1003;-61
2023/10/26 02:15:06;;;;;;;;;;;;;;;16.46;100.00;94339.22;5156577;27;986;-61
2023/10/26 02:17:32;;;;;;;;;;;;;;;16.49;100.00;94333.38;5156483;27;1024;-61
2023/10/26 02:19:58;;;;;;;;;;;;;;;16.53;100.00;94337.31;5156029;27;1909;-61
2023/10/26 02:22:24;;;;;;;;;;;;;;;16.53;100.00;94323.81;5156247;27;973;-61
2023/10/26 02:24:50;;;;;;;;;;;;;;;16.57;100.00;94322.31;5137916;27;992;-62
2023/10/26 02:27:16;;;;;;;;;;;;;;;16.62;100.00;94323.53;5156068;27;956;-61
2023/10/26 02:29:42;;;;;;;;;;;;;;;16.68;100.00;94330.78;5155990;27;1091;-61
2023/10/26 02:32:08;;;;;;;;;;;;;;;16.71;100.00;94331.16;5156212;27;979;-61
2023/10/26 02:34:34;;;;;;;;;;;;;;;16.76;100.00;94339.41;5135829;27;1156;-60
2023/10/26 02:37:01;;;;;;;;;;;;;;;16.81;100.00;94341.47;5135083;27;1092;-61
2023/10/26 02:39:27;;;;;;;;;;;;;;;16.83;99.80;94334.00;5134990;27;1918;-61
2023/10/26 02:41:53;;;;;;;;;;;;;;;16.83;100.00;94328.63;5135010;27;1236;-61
2023/10/26 02:44:19;;;;;;;;;;;;;;;16.87;99.14;94346.03;5134820;27;944;-61
2023/10/26 02:46:45;;;;;;;;;;;;;;;16.92;97.59;94357.00;5135077;27;969;-61
2023/10/26 02:49:11;;;;;;;;;;;;;;;16.98;98.65;94358.00;5116629;27;1067;-61
2023/10/26 02:51:37;;;;;;;;;;;;;;;16.96;99.15;94363.59;5134931;27;1040;-61
2023/10/26 02:54:03;;;;;;;;;;;;;;;16.70;100.00;94377.25;5134990;27;1015;-61
2023/10/26 02:56:29;;;;;;;;;;;;;;;16.40;100.00;94377.84;5134838;27;1127;-61
2023/10/26 02:58:55;;;;;;;;;;;;;;;16.12;100.00;94383.59;5134682;27;1910;-61
2023/10/26 03:01:21;;;;;;;;;;;;;;;15.98;100.00;94377.44;5134893;27;970;-62
2023/10/26 03:03:47;;;;;;;;;;;;;;;16.04;100.00;94379.25;5134914;27;1007;-61
2023/10/26 03:06:13;;;;;;;;;;;;;;;15.99;100.00;94384.47;5134818;27;1044;-62
2023/10/26 03:08:39;;;;;;;;;;;;;;;15.91;100.00;94385.53;5134661;27;1298;-61
2023/10/26 03:11:04;;;;;;;;;;;;;;;15.89;100.00;94392.19;5134581;27;1083;-59
2023/10/26 03:13:30;;;;;;;;;;;;;;;15.88;100.00;94385.13;5134532;27;1040;-60
2023/10/26 03:15:56;;;;;;;;;;;;;;;15.87;100.00;94396.97;5134836;27;1056;-60
2023/10/26 03:18:22;;;;;;;;;;;;;;;15.86;100.00;94387.19;5134743;27;1057;-60
2023/10/26 03:20:49;;;;;;;;;;;;;;;15.82;100.00;94384.09;5116439;28;1999;-60
2023/10/26 03:23:15;;;;;;;;;;;;;;;15.73;100.00;94380.81;5134466;27;992;-60
2023/10/26 03:25:41;;;;;;;;;;;;;;;15.72;100.00;94371.03;5134582;27;976;-59
2023/10/26 03:28:07;;;;;;;;;;;;;;;15.84;100.00;94375.81;5134392;27;973;-61
2023/10/26 03:30:33;;;;;;;;;;;;;;;15.76;100.00;94374.16;5134534;27;1052;-61
2023/10/26 03:32:59;;;;;;;;;;;;;;;15.86;100.00;94381.81;5140597;27;1145;-60
2023/10/26 03:35:25;;;;;;;;;;;;;;;15.86;100.00;94384.50;5155015;27;1052;-62
2023/10/26 03:37:51;;;;;;;;;;;;;;;15.85;100.00;94380.16;5154960;27;1079;-61
2023/10/26 03:40:17;;;;;;;;;;;;;;;15.83;100.00;94372.28;5154754;27;1906;-62
2023/10/26 03:42:43;;;;;;;;;;;;;;;15.76;100.00;94369.63;5154928;27;971;-61
2023/10/26 03:45:09;;;;;;;;;;;;;;;15.66;100.00;94363.81;5154995;27;1032;-62
2023/10/26 03:47:35;;;;;;;;;;;;;;;15.54;100.00;94369.03;5155102;27;973;-62
2023/10/26 03:50:02;;;;;;;;;;;;;;;15.47;100.00;94372.78;5154795;27;917;-62
2023/10/26 03:52:28;;;;;;;;;;;;;;;15.37;100.00;94371.34;5154865;27;987;-62
2023/10/26 03:54:54;;;;;;;;;;;;;;;15.51;100.00;94382.91;5154785;27;1043;-62
2023/10/26 03:57:21;;;;;;;;;;;;;;;15.38;100.00;94372.16;5154673;27;1003;-62
2023/10/26 03:59:47;;;;;;;;;;;;;;;15.23;100.00;94372.38;5154992;27;1917;-61
2023/10/26 04:02:13;;;;;;;;;;;;;;;15.32;100.00;94378.38;5154850;27;1036;-60
2023/10/26 04:04:39;;;;;;;;;;;;;;;15.31;100.00;94369.50;5154849;27;1063;-62
2023/10/26 04:07:05;;;;;;;;;;;;;;;15.29;100.00;94374.25;5154667;27;1127;-63
2023/10/26 04:09:31;;;;;;;;;;;;;;;15.22;100.00;94371.56;5154763;27;1063;-62
2023/10/26 04:11:57;;;;;;;;;;;;;;;15.21;100.00;94375.31;5154572;27;1036;-61
2023/10/26 04:14:23;;;;;;;;;;;;;;;15.13;100.00;94382.75;5154589;27;1186;-62
2023/10/26 04:16:50;;;;;;;;;;;;;;;14.97;100.00;94379.44;5154850;27;1056;-62
2023/10/26 04:19:16;;;;;;;;;;;;;;;14.98;100.00;94385.66;5154423;27;1976;-61
2023/10/26 04:21:42;;;;;;;;;;;;;;;15.02;100.00;94379.66;5154573;27;1017;-61
2023/10/26 04:24:08;;;;;;;;;;;;;;;14.70;100.00;94381.31;5154545;27;1682;-62
2023/10/26 04:26:34;;;;;;;;;;;;;;;14.71;100.00;94390.19;5136209;27;1047;-62
2023/10/26 04:29:00;;;;;;;;;;;;;;;14.58;100.00;94388.31;5154468;27;1047;-61
2023/10/26 04:31:26;;;;;;;;;;;;;;;14.41;100.00;94382.44;5154649;27;1051;-60
2023/10/26 04:33:52;;;;;;;;;;;;;;;14.54;100.00;94379.78;5140487;27;1156;-61
2023/10/26 04:36:19;;;;;;;;;;;;;;;14.56;100.00;94375.03;5133845;28;909;-65
2023/10/26 04:38:45;;;;;;;;;;;;;;;14.51;100.00;94372.13;5133811;28;1988;-61
2023/10/26 04:41:11;;;;;;;;;;;;;;;14.66;100.00;94368.44;5133651;28;1048;-61
2023/10/26 04:43:37;;;;;;;;;;;;;;;14.62;100.00;94376.09;5133784;27;1048;-61
2023/10/26 04:46:03;;;;;;;;;;;;;;;14.45;100.00;94375.63;5136996;27;1100;-65
2023/10/26 04:48:29;;;;;;;;;;;;;;;14.55;100.00;94377.91;5137269;27;1040;-65
2023/10/26 04:50:56;;;;;;;;;;;;;;;14.58;100.00;94375.69;5137470;27;989;-66
2023/10/26 04:53:22;;;;;;;;;;;;;;;14.62;100.00;94368.03;5137275;27;958;-65
2023/10/26 04:55:48;;;;;;;;;;;;;;;14.66;100.00;94366.59;5137218;27;1044;-66
2023/10/26 04:58:14;;;;;;;;;;;;;;;14.70;100.00;94367.84;5137389;27;1064;-69
2023/10/26 05:00:40;;;;;;;;;;;;;;;14.69;100.00;94374.25;5137207;27;1963;-66
2023/10/26 05:03:06;;;;;;;;;;;;;;;14.58;100.00;94374.88;5137174;27;941;-64
2023/10/26 05:05:32;;;;;;;;;;;;;;;14.49;100.00;94378.75;5137072;27;1024;-65
2023/10/26 05:07:58;;;;;;;;;;;;;;;14.12;100.00;94386.31;5118746;27;1104;-65
2023/10/26 05:10:24;;;;;;;;;;;;;;;13.93;100.00;94387.91;5136927;27;941;-64
2023/10/26 05:12:50;;;;;;;;;;;;;;;13.92;100.00;94391.59;5118590;27;1099;-65
2023/10/26 05:15:16;;;;;;;;;;;;;;;14.09;100.00;94378.63;5136790;27;1044;-65
2023/10/26 05:17:42;;;;;;;;;;;;;;;14.20;100.00;94378.88;5136936;27;1036;-66
2023/10/26 05:20:09;;;;;;;;;;;;;;;14.37;100.00;94383.91;5136627;27;1986;-66
2023/10/26 05:22:35;;;;;;;;;;;;;;;14.53;100.00;94396.97;5136688;27;942;-66
2023/10/26 05:25:04;;;;;;;;;;;;;;;14.38;100.00;94402.53;5136689;27;1017;-65
2023/10/26 05:27:31;;;;;;;;;;;;;;;14.16;100.00;94390.25;5118435;27;1032;-65
2023/10/26 05:29:57;;;;;;;;;;;;;;;14.32;100.00;94394.41;5136421;27;1044;-66
2023/10/26 05:32:23;;;;;;;;;;;;;;;14.45;100.00;94399.84;5137610;27;1295;-66
2023/10/26 05:34:49;;;;;;;;;;;;;;;14.50;100.00;94397.38;5157233;27;1047;-66
2023/10/26 05:37:15;;;;;;;;;;;;;;;14.37;100.00;94398.16;5157165;27;952;-65
2023/10/26 05:39:41;;;;;;;;;;;;;;;14.35;100.00;94399.41;5157042;27;2012;-65
2023/10/26 05:42:07;;;;;;;;;;;;;;;14.42;100.00;94406.47;5157291;27;975;-65
2023/10/26 05:44:33;;;;;;;;;;;;;;;14.49;100.00;94411.84;5157129;27;1253;-66
2023/10/26 05:46:59;;;;;;;;;;;;;;;14.55;100.00;94416.44;5157088;27;991;-64
2023/10/26 05:49:25;;;;;;;;;;;;;;;14.62;100.00;94408.38;5156872;27;1052;-63
2023/10/26 05:51:51;;;;;;;;;;;;;;;14.55;100.00;94413.72;5156888;27;1091;-64
2023/10/26 05:54:17;;;;;;;;;;;;;;;14.63;100.00;94415.44;5156714;27;1027;-64
2023/10/26 05:56:44;;;;;;;;;;;;;;;14.65;100.00;94421.44;5156593;27;1052;-64
2023/10/26 05:59:10;;;;;;;;;;;;;;;14.55;100.00;94421.81;5156852;27;1909;-71
2023/10/26 06:01:36;;;;;;;;;;;;;;;14.70;100.00;94435.13;5156690;27;1072;-64
2023/10/26 06:04:02;;;;;;;;;;;;;;;14.84;100.00;94428.72;5138447;27;1004;-63
2023/10/26 06:06:29;;;;;;;;;;;;;;;14.88;100.00;94429.13;5156583;27;1031;-63
2023/10/26 06:08:55;;;;;;;;;;;;;;;14.97;100.00;94441.34;5156385;27;1190;-63
2023/10/26 06:11:21;;;;;;;;;;;;;;;15.00;100.00;94445.50;5156616;27;1040;-62
2023/10/26 06:13:47;;;;;;;;;;;;;;;15.07;100.00;94448.19;5156653;27;1028;-66
2023/10/26 06:16:15;;;;;;;;;;;;;;;15.17;100.00;94449.44;5138026;27;1031;-67
2023/10/26 06:18:42;;;;;;;;;;;;;;;15.46;100.00;94451.91;5156167;27;1902;-69
2023/10/26 06:21:08;;;;;;;;;;;;;;;15.89;100.00;94462.25;5156401;27;1018;-68
2023/10/26 06:23:35;;;;;;;;;;;;;;;16.10;100.00;94469.25;5156089;27;1032;-65
2023/10/26 06:26:02;;;;;;;;;;;;;;;16.07;100.00;94475.91;5137698;27;1059;-63
2023/10/26 06:28:28;;;;;;;;;;;;;;;15.93;100.00;94464.31;5156287;27;991;-63
2023/10/26 06:30:55;;;;;;;;;;;;;;;15.84;100.00;94471.00;5156230;27;1031;-64
2023/10/26 06:33:21;;;;;;;;;;;;;;;15.71;100.00;94479.88;5146202;27;1208;-64
2023/10/26 06:35:48;;;;;;;;;;;;;;;15.78;100.00;94482.59;5135225;27;1087;-64
2023/10/26 06:38:14;;;;;;;;;;;;;;;15.93;100.00;94487.75;5135000;27;1091;-64
2023/10/26 06:40:40;;;;;;;;;;;;;;;16.01;100.00;94490.22;5116700;27;1989;-64
2023/10/26 06:43:06;;;;;;;;;;;;;;;15.79;100.00;94486.97;5135335;27;996;-64
2023/10/26 06:45:33;;;;;;;;;;;;;;;15.83;100.00;94490.06;5135147;27;1027;-64
2023/10/26 06:47:59;;;;;;;;;;;;;;;16.03;100.00;94496.25;5135106;27;1048;-64
2023/10/26 06:50:25;;;;;;;;;;;;;;;16.04;100.00;94499.78;5134920;27;1075;-64
2023/10/26 06:52:51;;;;;;;;;;;;;;;16.19;100.00;94503.88;5134816;27;1048;-64
2023/10/26 06:55:17;;;;;;;;;;;;;;;16.33;100.00;94512.78;5134775;27;1126;-63
2023/10/26 06:57:43;;;;;;;;;;;;;;;16.40;100.00;94502.75;5134948;27;1110;-64
2023/10/26 07:00:10;;;;;;;;;;;;;;;16.34;100.00;94510.91;5134715;27;1987;-64
2023/10/26 07:02:36;;;;;;;;;;;;;;;16.34;100.00;94508.19;5134743;27;1044;-64
2023/10/26 07:05:03;;;;;;;;;;;;;;;16.44;100.00;94508.56;5134773;27;1032;-64
2023/10/26 07:07:30;;;;;;;;;;;;;;;16.45;100.00;94509.38;5133738;27;1214;-64
2023/10/26 07:09:57;;;;;;;;;;;;;;;16.39;100.00;94505.69;5134971;27;965;-64
2023/10/26 07:12:24;;;;;;;;;;;;;;;16.45;100.00;94501.28;5134666;27;1034;-64
2023/10/26 07:14:54;;;;;;;;;;;;;;;16.64;100.00;94494.16;5134645;27;1111;-65
2023/10/26 07:17:20;;;;;;;;;;;;;;;16.72;100.00;94493.94;5134473;27;1024;-64
2023/10/26 07:19:46;;;;;;;;;;;;;;;16.81;100.00;94494.50;5134465;27;1906;-66
2023/10/26 07:22:12;;;;;;;;;;;;;;;16.87;100.00;94504.47;5116194;28;1025;-64
2023/10/26 07:24:38;;;;;;;;;;;;;;;16.97;100.00;94502.13;5134685;27;964;-63
2023/10/26 07:27:04;;;;;;;;;;;;;;;16.95;100.00;94488.03;5116401;27;1054;-63
2023/10/26 07:29:30;;;;;;;;;;;;;;;17.01;100.00;94491.72;5134409;27;1036;-63
2023/10/26 07:31:56;;;;;;;;;;;;;;;17.01;100.00;94495.25;5134372;28;1113;-63
2023/10/26 07:34:22;;;;;;;;;;;;;;;17.03;100.00;94486.94;5152627;27;1153;-64
2023/10/26 07:36:48;;;;;;;;;;;;;;;16.98;100.00;94488.41;5136705;27;1061;-63
2023/10/26 07:39:14;;;;;;;;;;;;;;;16.97;100.00;94489.44;5155153;27;1909;-63
2023/10/26 07:41:42;;;;;;;;;;;;;;;17.03;100.00;94493.16;5155192;27;1036;-63
2023/10/26 07:44:08;;;;;;;;;;;;;;;17.02;100.00;94491.50;5155023;27;1064;-63
2023/10/26 07:46:34;;;;;;;;;;;;;;;16.93;100.00;94487.41;5154956;27;1044;-63
2023/10/26 07:49:00;;;;;;;;;;;;;;;16.95;100.00;94482.63;5154964;27;1003;-64
2023/10/26 07:51:26;;;;;;;;;;;;;;;17.01;100.00;94495.25;5154749;27;1099;-64
2023/10/26 07:53:52;;;;;;;;;;;;;;;17.09;100.00;94486.91;5155037;27;1039;-66
2023/10/26 07:56:18;;;;;;;;;;;;;;;17.45;100.00;94482.66;5136497;27;976;-66
2023/10/26 07:58:44;;;;;;;;;;;;;;;17.95;100.00;94490.00;5154775;27;1909;-67
2023/10/26 08:01:10;;;;;;;;;;;;;;;18.22;97.32;94473.47;5136383;27;1091;-67
2023/10/26 08:03:36;;;;;;;;;;;;;;;18.78;92.89;94466.97;5154851;27;1044;-66
2023/10/26 08:06:02;;;;;;;;;;;;;;;18.83;91.99;94475.25;5154656;27;1033;-66
2023/10/26 08:08:29;;;;;;;;;;;;;;;18.64;92.92;94465.50;5154595;27;1120;-69
2023/10/26 08:10:56;;;;;;;;;;;;;;;18.34;96.03;94456.28;5154944;27;1015;-69
2023/10/26 08:13:22;;;;;;;;;;;;;;;18.64;94.39;94460.06;5154701;27;997;-68
2023/10/26 08:15:48;;;;;;;;;;;;;;;19.31;92.14;94463.53;5135982;27;1103;-65
2023/10/26 08:18:14;;;;;;;;;;;;;;;19.83;89.68;94465.63;5134446;27;968;-67
2023/10/26 08:20:40;;;;;;;;;;;;;;;20.18;83.79;94461.25;5137774;27;1909;-66
2023/10/26 08:23:06;;;;;;;;;;;;;;;20.43;84.99;94461.81;5138126;27;1040;-72
2023/10/26 08:25:38;;;;;;;;;;;;;;;20.74;84.17;94458.94;5137748;27;1111;-72
2023/10/26 08:28:04;;;;;;;;;;;;;;;20.52;83.61;94464.16;5137851;27;1043;-68
2023/10/26 08:30:30;;;;;;;;;;;;;;;20.04;87.40;94461.50;5119633;27;968;-62
2023/10/26 08:32:56;;;;;;;;;;;;;;;19.63;86.13;94460.50;5137711;27;1212;-62
2023/10/26 08:35:22;;;;;;;;;;;;;;;19.54;84.22;94450.25;5137521;27;988;-61
2023/10/26 08:37:49;;;;;;;;;;;;;;;19.59;85.12;94453.91;5137815;27;979;-60
2023/10/26 08:40:15;;;;;;;;;;;;;;;20.19;82.96;94458.31;5137568;27;1990;-61
2023/10/26 08:42:43;;;;;;;;;;;;;;;20.74;81.73;94448.06;5137664;27;988;-62
2023/10/26 08:45:19;;;;;;;;;;;;;;;21.17;80.53;94442.09;5137554;27;1037;-62
2023/10/26 08:47:47;;;;;;;;;;;;;;;21.30;79.02;94432.78;5137406;27;933;-62
2023/10/26 08:50:13;;;;;;;;;;;;;;;21.61;78.34;94434.16;5137457;27;1051;-63
2023/10/26 08:52:42;;;;;;;;;;;;;;;21.90;76.66;94428.63;5137494;27;1003;-63
2023/10/26 08:55:08;;;;;;;;;;;;;;;22.04;77.61;94423.63;5137333;27;965;-63
2023/10/26 08:57:45;;;;;;;;;;;;;;;22.08;75.93;94423.97;5137281;27;1009;-62
2023/10/26 09:00:11;;;;;;;;;;;;;;;22.35;75.11;94411.31;5137098;27;1910;-62
2023/10/26 09:02:38;;;;;;;;;;;;;;;22.60;72.69;94410.00;5137107;27;969;-62
2023/10/26 09:05:04;;;;;;;;;;;;;;;22.73;72.74;94411.50;5137114;27;1032;-64
2023/10/26 09:07:31;;;;;;;;;;;;;;;22.79;72.42;94414.03;5132521;27;1372;-63
2023/10/26 09:09:57;;;;;;;;;;;;;;;22.84;71.95;94399.63;5116482;28;1028;-65
2023/10/26 09:12:23;;;;;;;;;;;;;;;22.79;74.15;94403.13;5116260;28;1095;-61
2023/10/26 09:14:59;;;;;;;;;;;;;;;23.04;72.17;94399.03;5116323;28;1052;-63
2023/10/26 09:17:28;;;;;;;;;;;;;;;23.02;73.46;94406.63;5116167;28;1049;-63
2023/10/26 09:19:55;;;;;;;;;;;;;;;22.87;73.37;94398.28;5116344;28;1909;-63
2023/10/26 09:22:37;;;;;;;;;;;;;;;22.55;74.66;94402.56;5116080;28;1032;-62
2023/10/26 09:25:10;;;;;;;;;;;;;;;22.36;76.02;94403.97;5116156;28;1029;-62
2023/10/26 09:27:36;;;;;;;;;;;;;;;22.67;75.26;94402.44;5116090;28;977;-61
2023/10/26 09:30:03;;;;;;;;;;;;;;;22.57;73.53;94399.59;5115395;28;989;-61
2023/10/26 09:32:33;;;;;;;;;;;;;;;22.69;74.49;94402.16;5118053;27;1070;-62
2023/10/26 09:34:59;;;;;;;;;;;;;;;22.24;73.62;94387.72;5136593;27;1083;-63
2023/10/26 09:37:26;;;;;;;;;;;;;;;22.40;75.34;94395.06;5136400;27;1016;-62
2023/10/26 09:39:52;;;;;;;;;;;;;;;22.52;72.90;94389.47;5136311;27;1989;-62
2023/10/26 09:42:22;;;;;;;;;;;;;;;22.26;74.70;94382.88;5136150;27;1095;-62
2023/10/26 09:44:48;;;;;;;;;;;;;;;22.36;74.95;94376.72;5136626;27;1051;-64
2023/10/26 09:47:15;;;;;;;;;;;;;;;22.73;71.76;94370.63;5136356;27;996;-61
2023/10/26 09:49:41;;;;;;;;;;;;;;;23.17;71.34;94362.38;5136361;27;988;-62
2023/10/26 09:52:07;;;;;;;;;;;;;;;23.22;69.16;94347.94;5136120;27;1044;-61
2023/10/26 09:54:37;;;;;;;;;;;;;;;23.04;70.06;94347.25;5135994;27;1092;-62
2023/10/26 09:57:13;;;;;;;;;;;;;;;23.05;72.04;94348.91;5135984;27;952;-62
2023/10/26 09:59:39;;;;;;;;;;;;;;;23.26;71.01;94347.19;5136120;27;1914;-62
2023/10/26 10:02:12;;;;;;;;;;;;;;;23.31;68.95;94344.47;5136095;27;974;-63
2023/10/26 10:04:39;;;;;;;;;;;;;;;23.40;69.52;94336.66;5135942;27;1036;-62
2023/10/26 10:07:06;;;;;;;;;;;;;;;23.26;69.45;94329.97;5136443;27;1182;-63
2023/10/26 10:09:47;;;;;;;;;;;;;;;23.30;67.69;94329.22;5156442;27;1038;-63
2023/10/26 10:12:16;;;;;;;;;;;;;;;23.43;68.75;94327.94;5156653;27;1052;-63
2023/10/26 10:14:48;;;;;;;;;;;;;;;23.69;68.63;94325.38;5156395;27;1103;-63
2023/10/26 10:17:14;;;;;;;;;;;;;;;23.78;68.43;94321.94;5156424;27;1023;-62
2023/10/26 10:19:43;;;;;;;;;;;;;;;23.96;66.92;94317.94;5156286;27;1909;-62
2023/10/26 10:22:29;;;;;;;;;;;;;;;24.15;67.64;94307.38;5156296;27;971;-62
2023/10/26 10:24:55;;;;;;;;;;;;;;;24.34;64.60;94301.47;5156182;27;1532;-62
2023/10/26 10:27:21;;;;;;;;;;;;;;;24.29;62.98;94299.50;5156055;27;1036;-62
2023/10/26 10:29:47;;;;;;;;;;;;;;;24.36;63.98;94291.09;5156226;27;965;-62
2023/10/26 10:32:33;;;;;;;;;;;;;;;24.48;62.25;94286.19;5155975;27;1107;-62
2023/10/26 10:35:04;;;;;;;;;;;;;;;24.70;64.02;94277.81;5117153;27;1121;-61
2023/10/26 10:37:30;;;;;;;;;;;;;;;24.62;61.18;94270.13;5135419;27;984;-62
2023/10/26 10:40:10;;;;;;;;;;;;;;;24.59;62.58;94273.41;5135261;27;1913;-63
2023/10/26 10:42:40;;;;;;;;;;;;;;;24.52;61.45;94278.31;5135229;27;960;-60
2023/10/26 10:45:11;;;;;;;;;;;;;;;24.62;61.49;94263.84;5135198;27;1044;-61
2023/10/26 10:47:38;;;;;;;;;;;;;;;24.51;59.97;94272.03;5135059;27;1099;-63
2023/10/26 10:50:14;;;;;;;;;;;;;;;24.36;60.51;94278.25;5135171;27;950;-62
2023/10/26 10:52:41;;;;;;;;;;;;;;;23.86;59.94;94271.47;5135115;27;1036;-63
2023/10/26 10:55:07;;;;;;;;;;;;;;;23.75;59.90;94264.28;5116862;27;977;-63
2023/10/26 10:57:33;;;;;;;;;;;;;;;23.64;59.94;94265.31;5134801;27;1063;-63
2023/10/26 10:59:59;;;;;;;;;;;;;;;23.81;62.76;94262.44;5134986;27;1914;-63
2023/10/26 11:02:25;;;;;;;;;;;;;;;23.80;59.11;94266.28;5134836;27;1071;-63
2023/10/26 11:04:58;;;;;;;;;;;;;;;23.76;61.14;94257.75;5134918;27;1044;-63
2023/10/26 11:07:25;;;;;;;;;;;;;;;23.75;60.78;94261.56;5134855;27;1071;-63
2023/10/26 11:09:56;;;;;;;;;;;;;;;23.57;59.32;94260.94;5134750;27;1032;-63
2023/10/26 11:12:22;;;;;;;;;;;;;;;23.44;58.93;94268.75;5134563;27;1039;-63
2023/10/26 11:14:50;;;;;;;;;;;;;;;23.41;60.25;94272.84;5116566;27;1135;-63
2023/10/26 11:17:21;;;;;;;;;;;;;;;23.44;63.69;94275.03;5134694;27;1083;-63
2023/10/26 11:19:49;;;;;;;;;;;;;;;23.49;62.95;94261.44;5116533;27;1987;-65
2023/10/26 11:22:16;;;;;;;;;;;;;;;23.42;64.46;94269.03;5134396;27;1091;-63
2023/10/26 11:24:42;;;;;;;;;;;;;;;23.28;62.20;94273.31;5134447;27;1023;-64
2023/10/26 11:27:09;;;;;;;;;;;;;;;23.08;64.46;94266.59;5134463;27;1048;-64
2023/10/26 11:29:42;;;;;;;;;;;;;;;23.02;65.36;94264.88;5134600;27;1032;-64
2023/10/26 11:32:18;;;;;;;;;;;;;;;22.90;63.74;94261.53;5134855;27;969;-63
2023/10/26 11:35:03;;;;;;;;;;;;;;;22.94;66.10;94257.19;5134514;28;996;-63
2023/10/26 11:37:29;;;;;;;;;;;;;;;22.94;61.96;94254.47;5134179;28;1634;-64
2023/10/26 11:39:55;;;;;;;;;;;;;;;22.90;61.27;94254.16;5116144;28;1901;-64
2023/10/26 11:42:41;;;;;;;;;;;;;;;22.88;58.79;94252.75;5116136;28;1044;-64
2023/10/26 11:45:07;;;;;;;;;;;;;;;23.08;58.83;94263.88;5134161;28;1101;-64
2023/10/26 11:47:50;;;;;;;;;;;;;;;23.27;60.21;94244.38;5115986;28;1048;-64
2023/10/26 11:50:19;;;;;;;;;;;;;;;23.27;54.61;94245.19;5134375;28;956;-64
2023/10/26 11:52:46;;;;;;;;;;;;;;;23.56;53.41;94242.09;5134465;27;997;-64
2023/10/26 11:55:14;;;;;;;;;;;;;;;23.82;52.05;94239.53;5138282;27;1029;-64
2023/10/26 11:57:40;;;;;;;;;;;;;;;23.88;50.89;94243.91;5138407;27;1040;-64
2023/10/26 12:00:07;;;;;;;;;;;;;;;23.81;51.75;94238.72;5138198;27;1979;-64
2023/10/26 12:02:34;;;;;;;;;;;;;;;23.81;52.10;94235.16;5138181;27;1044;-65
2023/10/26 12:05:00;;;;;;;;;;;;;;;23.83;52.73;94231.09;5138438;27;1020;-64
2023/10/26 12:07:26;;;;;;;;;;;;;;;23.91;50.87;94229.75;5137936;27;1254;-65
2023/10/26 12:09:52;;;;;;;;;;;;;;;23.93;51.22;94233.84;5138337;27;969;-62
2023/10/26 12:12:18;;;;;;;;;;;;;;;24.00;50.94;94246.41;5138040;27;1024;-64
2023/10/26 12:14:46;;;;;;;;;;;;;;;23.97;48.59;94243.13;5119843;27;1303;-65
2023/10/26 12:17:12;;;;;;;;;;;;;;;23.92;50.50;94240.41;5138260;27;1087;-67
2023/10/26 12:19:38;;;;;;;;;;;;;;;24.06;50.18;94239.91;5137802;27;1988;-68
2023/10/26 12:22:04;;;;;;;;;;;;;;;24.13;49.98;94237.72;5138127;27;1024;-62
2023/10/26 12:24:32;;;;;;;;;;;;;;;24.18;50.77;94232.28;5119589;27;1020;-64
2023/10/26 12:26:59;;;;;;;;;;;;;;;24.22;49.35;94230.66;5137860;27;1035;-67
2023/10/26 12:29:25;;;;;;;;;;;;;;;24.34;49.26;94228.53;5137820;27;1044;-66
2023/10/26 12:31:52;;;;;;;;;;;;;;;24.39;48.87;94238.63;5119785;27;1487;-67
2023/10/26 12:34:19;;;;;;;;;;;;;;;24.21;50.20;94231.75;5155512;27;1240;-66
2023/10/26 12:36:45;;;;;;;;;;;;;;;24.06;49.82;94218.06;5158442;27;1024;-64
2023/10/26 12:39:12;;;;;;;;;;;;;;;24.04;48.66;94209.34;5139871;27;1902;-61
2023/10/26 12:41:38;;;;;;;;;;;;;;;24.10;50.64;94214.53;5139935;27;1114;-61
2023/10/26 12:44:04;;;;;;;;;;;;;;;24.02;49.60;94223.25;5158233;27;1111;-64
2023/10/26 12:46:31;;;;;;;;;;;;;;;23.99;50.20;94229.22;5140089;27;1052;-60
2023/10/26 12:48:57;;;;;;;;;;;;;;;23.89;49.61;94238.19;5140156;27;1041;-62
2023/10/26 12:51:23;;;;;;;;;;;;;;;23.90;52.15;94237.13;5158187;27;968;-59